sensor_id;sensor_type;location;lat;lon;timestamp;temperature;humidity
11772;DHT22;12556;55.748;13.194;2024-01-10T00:01:45;0.70;99.90
11772;DHT22;12556;55.748;13.194;2024-01-10T00:04:12;0.80;99.90
11772;DHT22;12556;55.748;13.194;2024-01-10T00:06:41;0.70;99.90
11772;DHT22;12556;55.748;13.194;2024-01-10T00:09:08;0.70;99.90
11772;DHT22;12556;55.748;13.194;2024-01-10T00:11:35;0.70;99.90
11772;DHT22;12556;55.748;13.194;2024-01-10T00:14:03;0.70;99.90
11772;DHT22;12556;55.748;13.194;2024-01-10T00:16:33;0.70;99.90
11772;DHT22;12556;55.748;13.194;2024-01-10T00:19:00;0.70;99.90
11772;DHT22;12556;55.748;13.194;2024-01-10T00:21:27;0.70;99.90
11772;DHT22;12556;55.748;13.194;2024-01-10T00:23:53;0.70;99.90
11772;DHT22;12556;55.748;13.194;2024-01-10T00:26:21;0.70;99.90
11772;DHT22;12556;55.748;13.194;2024-01-10T00:28:47;0.70;99.90
11772;DHT22;12556;55.748;13.194;2024-01-10T00:31:14;0.70;99.90
11772;DHT22;12556;55.748;13.194;2024-01-10T00:33:43;0.70;99.90
11772;DHT22;12556;55.748;13.194;2024-01-10T00:36:10;0.70;99.90
11772;DHT22;12556;55.748;13.194;2024-01-10T00:38:37;0.70;99.90
11772;DHT22;12556;55.748;13.194;2024-01-10T00:41:04;0.70;99.90
11772;DHT22;12556;55.748;13.194;2024-01-10T00:43:31;0.70;99.90
11772;DHT22;12556;55.748;13.194;2024-01-10T00:45:58;0.60;99.90
11772;DHT22;12556;55.748;13.194;2024-01-10T00:48:25;1.00;99.90
11772;DHT22;12556;55.748;13.194;2024-01-10T00:50:53;0.60;99.90
11772;DHT22;12556;55.748;13.194;2024-01-10T00:53:20;0.70;99.90
11772;DHT22;12556;55.748;13.194;2024-01-10T00:55:48;0.70;99.90
11772;DHT22;12556;55.748;13.194;2024-01-10T00:58:15;0.70;99.90
11772;DHT22;12556;55.748;13.194;2024-01-10T01:00:41;0.70;99.90
11772;DHT22;12556;55.748;13.194;2024-01-10T01:03:08;0.70;99.90
11772;DHT22;12556;55.748;13.194;2024-01-10T01:05:35;0.70;99.90
11772;DHT22;12556;55.748;13.194;2024-01-10T01:08:04;0.70;99.90
11772;DHT22;12556;55.748;13.194;2024-01-10T01:10:31;0.70;99.90
11772;DHT22;12556;55.748;13.194;2024-01-10T01:12:58;0.70;99.90
11772;DHT22;12556;55.748;13.194;2024-01-10T01:15:25;0.70;99.90
11772;DHT22;12556;55.748;13.194;2024-01-10T01:17:52;0.80;99.90
11772;DHT22;12556;55.748;13.194;2024-01-10T01:20:19;0.70;99.90
11772;DHT22;12556;55.748;13.194;2024-01-10T01:22:46;0.70;99.90
11772;DHT22;12556;55.748;13.194;2024-01-10T01:25:14;0.60;99.90
11772;DHT22;12556;55.748;13.194;2024-01-10T01:27:41;0.70;99.90
11772;DHT22;12556;55.748;13.194;2024-01-10T01:30:09;0.60;99.90
11772;DHT22;12556;55.748;13.194;2024-01-10T01:32:37;0.60;99.90
11772;DHT22;12556;55.748;13.194;2024-01-10T01:35:04;0.80;99.90
11772;DHT22;12556;55.748;13.194;2024-01-10T01:37:31;0.60;99.90
11772;DHT22;12556;55.748;13.194;2024-01-10T01:39:58;0.50;99.90
11772;DHT22;12556;55.748;13.194;2024-01-10T01:42:27;0.50;99.90
11772;DHT22;12556;55.748;13.194;2024-01-10T01:44:54;0.60;99.90
11772;DHT22;12556;55.748;13.194;2024-01-10T01:47:21;0.60;99.90
11772;DHT22;12556;55.748;13.194;2024-01-10T01:49:48;0.60;99.90
11772;DHT22;12556;55.748;13.194;2024-01-10T01:52:15;0.60;99.90
11772;DHT22;12556;55.748;13.194;2024-01-10T01:54:42;0.60;99.90
11772;DHT22;12556;55.748;13.194;2024-01-10T01:57:09;0.80;99.90
11772;DHT22;12556;55.748;13.194;2024-01-10T01:59:37;0.60;99.90
11772;DHT22;12556;55.748;13.194;2024-01-10T02:02:04;0.60;99.90
11772;DHT22;12556;55.748;13.194;2024-01-10T02:04:32;0.70;99.90
11772;DHT22;12556;55.748;13.194;2024-01-10T02:06:59;0.50;99.90
11772;DHT22;12556;55.748;13.194;2024-01-10T02:09:26;0.60;99.90
11772;DHT22;12556;55.748;13.194;2024-01-10T02:11:53;0.60;99.90
11772;DHT22;12556;55.748;13.194;2024-01-10T02:14:21;0.60;99.90
11772;DHT22;12556;55.748;13.194;2024-01-10T02:16:49;0.60;99.90
11772;DHT22;12556;55.748;13.194;2024-01-10T02:19:20;0.60;99.90
11772;DHT22;12556;55.748;13.194;2024-01-10T02:21:47;0.60;99.90
11772;DHT22;12556;55.748;13.194;2024-01-10T02:24:14;0.60;99.90
11772;DHT22;12556;55.748;13.194;2024-01-10T02:26:42;0.60;99.90
11772;DHT22;12556;55.748;13.194;2024-01-10T02:29:09;0.60;99.90
11772;DHT22;12556;55.748;13.194;2024-01-10T02:31:36;0.60;99.90
11772;DHT22;12556;55.748;13.194;2024-01-10T02:34:03;0.60;99.90
11772;DHT22;12556;55.748;13.194;2024-01-10T02:36:30;0.60;99.90
11772;DHT22;12556;55.748;13.194;2024-01-10T02:38:57;0.60;99.90
11772;DHT22;12556;55.748;13.194;2024-01-10T02:41:24;0.60;99.90
11772;DHT22;12556;55.748;13.194;2024-01-10T02:43:54;0.60;99.90
11772;DHT22;12556;55.748;13.194;2024-01-10T02:46:24;0.60;99.90
11772;DHT22;12556;55.748;13.194;2024-01-10T02:48:53;0.80;99.90
11772;DHT22;12556;55.748;13.194;2024-01-10T02:51:21;0.60;99.90
11772;DHT22;12556;55.748;13.194;2024-01-10T02:53:48;0.50;99.90
11772;DHT22;12556;55.748;13.194;2024-01-10T02:56:15;0.50;99.90
11772;DHT22;12556;55.748;13.194;2024-01-10T02:58:42;0.50;99.90
11772;DHT22;12556;55.748;13.194;2024-01-10T03:01:10;0.50;99.90
11772;DHT22;12556;55.748;13.194;2024-01-10T03:03:37;0.50;99.90
11772;DHT22;12556;55.748;13.194;2024-01-10T03:06:04;0.70;99.90
11772;DHT22;12556;55.748;13.194;2024-01-10T03:08:31;0.50;99.90
11772;DHT22;12556;55.748;13.194;2024-01-10T03:10:58;0.50;99.90
11772;DHT22;12556;55.748;13.194;2024-01-10T03:13:25;0.50;99.90
11772;DHT22;12556;55.748;13.194;2024-01-10T03:15:52;0.50;99.90
11772;DHT22;12556;55.748;13.194;2024-01-10T03:18:20;0.50;99.90
11772;DHT22;12556;55.748;13.194;2024-01-10T03:20:47;0.60;99.90
11772;DHT22;12556;55.748;13.194;2024-01-10T03:23:14;0.60;99.90
11772;DHT22;12556;55.748;13.194;2024-01-10T03:25:41;0.60;99.90
11772;DHT22;12556;55.748;13.194;2024-01-10T03:28:08;0.50;99.90
11772;DHT22;12556;55.748;13.194;2024-01-10T03:30:35;0.60;99.90
11772;DHT22;12556;55.748;13.194;2024-01-10T03:33:01;0.70;99.90
11772;DHT22;12556;55.748;13.194;2024-01-10T03:35:30;0.60;99.90
11772;DHT22;12556;55.748;13.194;2024-01-10T03:37:57;0.60;99.90
11772;DHT22;12556;55.748;13.194;2024-01-10T03:40:24;0.50;99.90
11772;DHT22;12556;55.748;13.194;2024-01-10T03:42:51;0.50;99.90
11772;DHT22;12556;55.748;13.194;2024-01-10T03:45:18;0.40;99.90
11772;DHT22;12556;55.748;13.194;2024-01-10T03:47:48;0.40;99.90
11772;DHT22;12556;55.748;13.194;2024-01-10T03:50:17;0.40;99.90
11772;DHT22;12556;55.748;13.194;2024-01-10T03:52:46;0.40;99.90
11772;DHT22;12556;55.748;13.194;2024-01-10T03:55:13;0.30;99.90
11772;DHT22;12556;55.748;13.194;2024-01-10T03:57:40;0.30;99.90
11772;DHT22;12556;55.748;13.194;2024-01-10T04:00:08;0.20;99.90
11772;DHT22;12556;55.748;13.194;2024-01-10T04:02:36;0.20;99.90
11772;DHT22;12556;55.748;13.194;2024-01-10T04:05:06;0.20;99.90
11772;DHT22;12556;55.748;13.194;2024-01-10T04:07:33;0.10;99.90
11772;DHT22;12556;55.748;13.194;2024-01-10T04:10:02;0.10;99.90
11772;DHT22;12556;55.748;13.194;2024-01-10T04:12:29;0.10;99.90
11772;DHT22;12556;55.748;13.194;2024-01-10T04:14:57;0.10;99.90
11772;DHT22;12556;55.748;13.194;2024-01-10T04:17:23;0.10;99.90
11772;DHT22;12556;55.748;13.194;2024-01-10T04:19:51;0.10;99.90
11772;DHT22;12556;55.748;13.194;2024-01-10T04:22:18;0.00;99.90
11772;DHT22;12556;55.748;13.194;2024-01-10T04:24:45;-0.10;99.90
11772;DHT22;12556;55.748;13.194;2024-01-10T04:27:13;0.00;99.90
11772;DHT22;12556;55.748;13.194;2024-01-10T04:29:40;-0.10;99.90
11772;DHT22;12556;55.748;13.194;2024-01-10T04:32:07;-0.10;99.90
11772;DHT22;12556;55.748;13.194;2024-01-10T04:34:34;-0.10;99.90
11772;DHT22;12556;55.748;13.194;2024-01-10T04:37:01;-0.10;99.90
11772;DHT22;12556;55.748;13.194;2024-01-10T04:39:28;-0.10;99.90
11772;DHT22;12556;55.748;13.194;2024-01-10T04:41:55;0.00;99.90
11772;DHT22;12556;55.748;13.194;2024-01-10T04:44:23;0.00;99.90
11772;DHT22;12556;55.748;13.194;2024-01-10T04:46:50;0.00;99.90
11772;DHT22;12556;55.748;13.194;2024-01-10T04:49:17;0.00;99.90
11772;DHT22;12556;55.748;13.194;2024-01-10T04:51:44;0.00;99.90
11772;DHT22;12556;55.748;13.194;2024-01-10T04:54:11;0.00;99.90
11772;DHT22;12556;55.748;13.194;2024-01-10T04:56:38;0.00;99.90
11772;DHT22;12556;55.748;13.194;2024-01-10T04:59:05;0.00;99.90
11772;DHT22;12556;55.748;13.194;2024-01-10T05:01:34;0.00;99.90
11772;DHT22;12556;55.748;13.194;2024-01-10T05:04:03;0.00;99.90
11772;DHT22;12556;55.748;13.194;2024-01-10T05:06:30;0.00;99.90
11772;DHT22;12556;55.748;13.194;2024-01-10T05:08:57;0.00;99.90
11772;DHT22;12556;55.748;13.194;2024-01-10T05:11:25;0.00;99.90
11772;DHT22;12556;55.748;13.194;2024-01-10T05:13:52;-0.10;99.90
11772;DHT22;12556;55.748;13.194;2024-01-10T05:16:19;-0.10;99.90
11772;DHT22;12556;55.748;13.194;2024-01-10T05:18:48;-0.10;99.90
11772;DHT22;12556;55.748;13.194;2024-01-10T05:21:15;-0.10;99.90
11772;DHT22;12556;55.748;13.194;2024-01-10T05:23:42;-0.10;99.90
11772;DHT22;12556;55.748;13.194;2024-01-10T05:26:09;-0.10;99.90
11772;DHT22;12556;55.748;13.194;2024-01-10T05:28:36;0.00;99.90
11772;DHT22;12556;55.748;13.194;2024-01-10T05:31:04;0.00;99.90
11772;DHT22;12556;55.748;13.194;2024-01-10T05:33:31;0.00;99.90
11772;DHT22;12556;55.748;13.194;2024-01-10T05:35:59;-0.10;99.90
11772;DHT22;12556;55.748;13.194;2024-01-10T05:38:26;-0.20;99.90
11772;DHT22;12556;55.748;13.194;2024-01-10T05:40:53;-0.20;99.90
11772;DHT22;12556;55.748;13.194;2024-01-10T05:43:20;-0.20;99.90
11772;DHT22;12556;55.748;13.194;2024-01-10T05:45:47;-0.30;99.90
11772;DHT22;12556;55.748;13.194;2024-01-10T05:48:14;-0.30;99.90
11772;DHT22;12556;55.748;13.194;2024-01-10T05:50:42;-0.30;99.90
11772;DHT22;12556;55.748;13.194;2024-01-10T05:53:11;-0.40;99.90
11772;DHT22;12556;55.748;13.194;2024-01-10T05:55:42;-0.40;99.90
11772;DHT22;12556;55.748;13.194;2024-01-10T05:58:09;-0.40;99.90
11772;DHT22;12556;55.748;13.194;2024-01-10T06:00:36;-0.40;99.90
11772;DHT22;12556;55.748;13.194;2024-01-10T06:03:03;-0.30;99.90
11772;DHT22;12556;55.748;13.194;2024-01-10T06:05:30;-0.30;99.90
11772;DHT22;12556;55.748;13.194;2024-01-10T06:07:58;0.10;99.90
11772;DHT22;12556;55.748;13.194;2024-01-10T06:10:26;-0.30;99.90
11772;DHT22;12556;55.748;13.194;2024-01-10T06:12:54;-0.30;99.90
11772;DHT22;12556;55.748;13.194;2024-01-10T06:15:21;0.30;99.90
11772;DHT22;12556;55.748;13.194;2024-01-10T06:17:48;-0.30;99.90
11772;DHT22;12556;55.748;13.194;2024-01-10T06:20:16;-0.30;99.90
11772;DHT22;12556;55.748;13.194;2024-01-10T06:22:43;-0.30;99.90
11772;DHT22;12556;55.748;13.194;2024-01-10T06:25:12;-0.30;99.90
11772;DHT22;12556;55.748;13.194;2024-01-10T06:27:40;-0.30;99.90
11772;DHT22;12556;55.748;13.194;2024-01-10T06:30:08;-0.40;99.90
11772;DHT22;12556;55.748;13.194;2024-01-10T06:32:35;-0.40;99.90
11772;DHT22;12556;55.748;13.194;2024-01-10T06:35:02;-0.40;99.90
11772;DHT22;12556;55.748;13.194;2024-01-10T06:37:30;-0.40;99.90
11772;DHT22;12556;55.748;13.194;2024-01-10T06:39:57;-0.40;99.90
11772;DHT22;12556;55.748;13.194;2024-01-10T06:42:24;-0.40;99.90
11772;DHT22;12556;55.748;13.194;2024-01-10T06:44:53;-0.40;99.90
11772;DHT22;12556;55.748;13.194;2024-01-10T06:47:20;-0.40;99.90
11772;DHT22;12556;55.748;13.194;2024-01-10T06:49:47;-0.60;99.90
11772;DHT22;12556;55.748;13.194;2024-01-10T06:52:14;-0.60;99.90
11772;DHT22;12556;55.748;13.194;2024-01-10T06:54:42;-0.60;99.90
11772;DHT22;12556;55.748;13.194;2024-01-10T06:57:09;-0.60;99.90
11772;DHT22;12556;55.748;13.194;2024-01-10T06:59:36;-0.50;99.90
11772;DHT22;12556;55.748;13.194;2024-01-10T07:02:05;-0.60;99.90
11772;DHT22;12556;55.748;13.194;2024-01-10T07:04:32;-0.70;99.90
11772;DHT22;12556;55.748;13.194;2024-01-10T07:06:58;-0.70;99.90
11772;DHT22;12556;55.748;13.194;2024-01-10T07:09:26;-0.70;99.90
11772;DHT22;12556;55.748;13.194;2024-01-10T07:11:53;-0.70;99.90
11772;DHT22;12556;55.748;13.194;2024-01-10T07:14:19;-0.80;99.90
11772;DHT22;12556;55.748;13.194;2024-01-10T07:16:46;-0.80;99.90
11772;DHT22;12556;55.748;13.194;2024-01-10T07:19:15;-0.80;99.90
11772;DHT22;12556;55.748;13.194;2024-01-10T07:21:43;-0.80;99.90
11772;DHT22;12556;55.748;13.194;2024-01-10T07:24:10;-0.80;99.90
11772;DHT22;12556;55.748;13.194;2024-01-10T07:26:37;-0.80;99.90
11772;DHT22;12556;55.748;13.194;2024-01-10T07:29:04;-0.80;99.90
11772;DHT22;12556;55.748;13.194;2024-01-10T07:31:33;-0.90;99.90
11772;DHT22;12556;55.748;13.194;2024-01-10T07:34:00;-0.90;99.90
11772;DHT22;12556;55.748;13.194;2024-01-10T07:36:31;-0.90;99.90
11772;DHT22;12556;55.748;13.194;2024-01-10T07:38:59;-0.90;99.90
11772;DHT22;12556;55.748;13.194;2024-01-10T07:41:26;-0.80;99.90
11772;DHT22;12556;55.748;13.194;2024-01-10T07:43:53;-0.80;99.90
11772;DHT22;12556;55.748;13.194;2024-01-10T07:46:20;-0.90;99.90
11772;DHT22;12556;55.748;13.194;2024-01-10T07:48:48;-0.90;99.90
11772;DHT22;12556;55.748;13.194;2024-01-10T07:51:15;-0.90;99.90
11772;DHT22;12556;55.748;13.194;2024-01-10T07:53:43;-0.80;99.90
11772;DHT22;12556;55.748;13.194;2024-01-10T07:56:10;-0.90;99.90
11772;DHT22;12556;55.748;13.194;2024-01-10T07:58:38;-0.90;99.90
11772;DHT22;12556;55.748;13.194;2024-01-10T08:01:05;-0.90;99.90
11772;DHT22;12556;55.748;13.194;2024-01-10T08:03:32;-0.90;99.90
11772;DHT22;12556;55.748;13.194;2024-01-10T08:05:59;-0.90;99.90
11772;DHT22;12556;55.748;13.194;2024-01-10T08:08:26;-0.90;99.90
11772;DHT22;12556;55.748;13.194;2024-01-10T08:10:56;-0.80;99.90
11772;DHT22;12556;55.748;13.194;2024-01-10T08:13:23;-0.80;99.90
11772;DHT22;12556;55.748;13.194;2024-01-10T08:15:50;-0.80;99.90
11772;DHT22;12556;55.748;13.194;2024-01-10T08:18:17;-0.80;99.90
11772;DHT22;12556;55.748;13.194;2024-01-10T08:20:44;-0.80;99.90
11772;DHT22;12556;55.748;13.194;2024-01-10T08:23:11;-0.80;99.90
11772;DHT22;12556;55.748;13.194;2024-01-10T08:25:39;-0.70;99.90
11772;DHT22;12556;55.748;13.194;2024-01-10T08:28:07;-0.70;99.90
11772;DHT22;12556;55.748;13.194;2024-01-10T08:30:35;-0.70;99.90
11772;DHT22;12556;55.748;13.194;2024-01-10T08:33:03;-0.60;99.90
11772;DHT22;12556;55.748;13.194;2024-01-10T08:35:31;-0.60;99.90
11772;DHT22;12556;55.748;13.194;2024-01-10T08:37:58;-0.60;99.90
11772;DHT22;12556;55.748;13.194;2024-01-10T08:40:25;-0.60;99.90
11772;DHT22;12556;55.748;13.194;2024-01-10T08:42:52;-0.60;99.90
11772;DHT22;12556;55.748;13.194;2024-01-10T08:45:20;-0.60;99.90
11772;DHT22;12556;55.748;13.194;2024-01-10T08:47:47;-0.60;99.90
11772;DHT22;12556;55.748;13.194;2024-01-10T08:50:14;-0.60;99.90
11772;DHT22;12556;55.748;13.194;2024-01-10T08:52:41;-0.60;99.90
11772;DHT22;12556;55.748;13.194;2024-01-10T08:55:08;-0.60;99.90
11772;DHT22;12556;55.748;13.194;2024-01-10T08:57:35;-0.70;99.90
11772;DHT22;12556;55.748;13.194;2024-01-10T09:00:02;-0.60;99.90
11772;DHT22;12556;55.748;13.194;2024-01-10T09:02:33;-0.70;99.90
11772;DHT22;12556;55.748;13.194;2024-01-10T09:05:02;-0.60;99.90
11772;DHT22;12556;55.748;13.194;2024-01-10T09:07:30;-0.60;99.90
11772;DHT22;12556;55.748;13.194;2024-01-10T09:09:57;-0.60;99.90
11772;DHT22;12556;55.748;13.194;2024-01-10T09:12:24;-0.60;99.90
11772;DHT22;12556;55.748;13.194;2024-01-10T09:14:51;-0.60;99.90
11772;DHT22;12556;55.748;13.194;2024-01-10T09:17:17;-0.50;99.90
11772;DHT22;12556;55.748;13.194;2024-01-10T09:19:46;-0.50;99.90
11772;DHT22;12556;55.748;13.194;2024-01-10T09:22:13;-0.60;99.90
11772;DHT22;12556;55.748;13.194;2024-01-10T09:24:40;-0.60;99.90
11772;DHT22;12556;55.748;13.194;2024-01-10T09:27:07;-0.60;99.90
11772;DHT22;12556;55.748;13.194;2024-01-10T09:29:34;-0.60;99.90
11772;DHT22;12556;55.748;13.194;2024-01-10T09:32:02;-0.60;99.90
11772;DHT22;12556;55.748;13.194;2024-01-10T09:34:29;-0.60;99.90
11772;DHT22;12556;55.748;13.194;2024-01-10T09:36:59;-0.50;99.90
11772;DHT22;12556;55.748;13.194;2024-01-10T09:39:27;-0.50;99.90
11772;DHT22;12556;55.748;13.194;2024-01-10T09:41:54;-0.50;99.90
11772;DHT22;12556;55.748;13.194;2024-01-10T09:44:21;-0.50;99.90
11772;DHT22;12556;55.748;13.194;2024-01-10T09:46:50;-0.50;99.90
11772;DHT22;12556;55.748;13.194;2024-01-10T09:49:18;-0.50;99.90
11772;DHT22;12556;55.748;13.194;2024-01-10T09:51:48;-0.50;99.90
11772;DHT22;12556;55.748;13.194;2024-01-10T09:54:17;-0.50;99.90
11772;DHT22;12556;55.748;13.194;2024-01-10T09:56:45;-0.50;99.90
11772;DHT22;12556;55.748;13.194;2024-01-10T09:59:13;-0.50;99.90
11772;DHT22;12556;55.748;13.194;2024-01-10T10:01:40;-0.50;99.90
11772;DHT22;12556;55.748;13.194;2024-01-10T10:04:09;-0.60;99.90
11772;DHT22;12556;55.748;13.194;2024-01-10T10:06:38;0.00;99.90
11772;DHT22;12556;55.748;13.194;2024-01-10T10:09:07;-0.60;99.90
11772;DHT22;12556;55.748;13.194;2024-01-10T10:11:37;-0.50;99.90
11772;DHT22;12556;55.748;13.194;2024-01-10T10:14:17;-0.50;99.90
11772;DHT22;12556;55.748;13.194;2024-01-10T10:16:44;-0.50;99.90
11772;DHT22;12556;55.748;13.194;2024-01-10T10:19:11;-0.40;99.90
11772;DHT22;12556;55.748;13.194;2024-01-10T10:21:39;-0.40;99.90
11772;DHT22;12556;55.748;13.194;2024-01-10T10:24:07;-0.40;99.90
11772;DHT22;12556;55.748;13.194;2024-01-10T10:26:36;-0.40;99.90
11772;DHT22;12556;55.748;13.194;2024-01-10T10:29:03;-0.40;99.90
11772;DHT22;12556;55.748;13.194;2024-01-10T10:31:31;-0.40;99.90
11772;DHT22;12556;55.748;13.194;2024-01-10T10:33:59;-0.40;99.90
11772;DHT22;12556;55.748;13.194;2024-01-10T10:36:29;-0.40;99.90
11772;DHT22;12556;55.748;13.194;2024-01-10T10:38:59;-0.40;99.90
11772;DHT22;12556;55.748;13.194;2024-01-10T10:41:27;-0.40;99.90
11772;DHT22;12556;55.748;13.194;2024-01-10T10:43:58;-0.40;99.90
11772;DHT22;12556;55.748;13.194;2024-01-10T10:46:27;-0.40;99.90
11772;DHT22;12556;55.748;13.194;2024-01-10T10:48:57;-0.40;99.90
11772;DHT22;12556;55.748;13.194;2024-01-10T10:51:30;-0.40;99.90
11772;DHT22;12556;55.748;13.194;2024-01-10T10:53:59;-0.40;99.90
11772;DHT22;12556;55.748;13.194;2024-01-10T10:56:29;-0.40;99.90
11772;DHT22;12556;55.748;13.194;2024-01-10T10:58:58;-0.30;99.90
11772;DHT22;12556;55.748;13.194;2024-01-10T11:01:27;-0.30;99.90
11772;DHT22;12556;55.748;13.194;2024-01-10T11:03:55;-0.30;99.90
11772;DHT22;12556;55.748;13.194;2024-01-10T11:06:23;-0.30;99.90
11772;DHT22;12556;55.748;13.194;2024-01-10T11:08:52;0.90;99.90
11772;DHT22;12556;55.748;13.194;2024-01-10T11:11:31;-0.40;99.90
11772;DHT22;12556;55.748;13.194;2024-01-10T11:14:09;-0.40;99.90
11772;DHT22;12556;55.748;13.194;2024-01-10T11:17:15;-0.40;99.90
11772;DHT22;12556;55.748;13.194;2024-01-10T11:19:58;-0.30;99.90
11772;DHT22;12556;55.748;13.194;2024-01-10T11:22:56;-0.30;99.90
11772;DHT22;12556;55.748;13.194;2024-01-10T11:25:26;-0.30;99.90
11772;DHT22;12556;55.748;13.194;2024-01-10T11:27:55;-0.30;99.90
11772;DHT22;12556;55.748;13.194;2024-01-10T11:30:33;-0.30;99.90
11772;DHT22;12556;55.748;13.194;2024-01-10T11:33:02;-0.30;99.90
11772;DHT22;12556;55.748;13.194;2024-01-10T11:35:29;-0.20;99.90
11772;DHT22;12556;55.748;13.194;2024-01-10T11:38:00;-0.20;99.90
11772;DHT22;12556;55.748;13.194;2024-01-10T11:40:48;-0.20;99.90
11772;DHT22;12556;55.748;13.194;2024-01-10T11:43:15;-0.10;99.90
11772;DHT22;12556;55.748;13.194;2024-01-10T11:45:52;-0.20;99.90
11772;DHT22;12556;55.748;13.194;2024-01-10T11:48:25;-0.10;99.90
11772;DHT22;12556;55.748;13.194;2024-01-10T11:50:54;-0.20;99.90
11772;DHT22;12556;55.748;13.194;2024-01-10T11:53:40;-0.20;99.90
11772;DHT22;12556;55.748;13.194;2024-01-10T11:56:12;-0.10;99.90
11772;DHT22;12556;55.748;13.194;2024-01-10T11:58:55;-0.10;99.90
11772;DHT22;12556;55.748;13.194;2024-01-10T12:01:23;-0.10;99.90
11772;DHT22;12556;55.748;13.194;2024-01-10T12:03:52;-0.10;99.90
11772;DHT22;12556;55.748;13.194;2024-01-10T12:06:21;0.00;99.90
11772;DHT22;12556;55.748;13.194;2024-01-10T12:08:48;-0.10;99.90
11772;DHT22;12556;55.748;13.194;2024-01-10T12:11:16;-0.10;99.90
11772;DHT22;12556;55.748;13.194;2024-01-10T12:13:43;-0.10;99.90
11772;DHT22;12556;55.748;13.194;2024-01-10T12:16:12;-0.10;99.90
11772;DHT22;12556;55.748;13.194;2024-01-10T12:18:41;-0.10;99.90
11772;DHT22;12556;55.748;13.194;2024-01-10T12:21:08;-0.10;99.90
11772;DHT22;12556;55.748;13.194;2024-01-10T12:23:36;0.00;99.90
11772;DHT22;12556;55.748;13.194;2024-01-10T12:26:05;0.00;99.90
11772;DHT22;12556;55.748;13.194;2024-01-10T12:28:34;0.00;99.90
11772;DHT22;12556;55.748;13.194;2024-01-10T12:31:01;0.00;99.90
11772;DHT22;12556;55.748;13.194;2024-01-10T12:33:28;-0.10;99.90
11772;DHT22;12556;55.748;13.194;2024-01-10T12:36:07;-0.10;99.90
11772;DHT22;12556;55.748;13.194;2024-01-10T12:38:35;-0.10;99.90
11772;DHT22;12556;55.748;13.194;2024-01-10T12:41:03;0.00;99.90
11772;DHT22;12556;55.748;13.194;2024-01-10T12:43:31;-0.10;99.90
11772;DHT22;12556;55.748;13.194;2024-01-10T12:46:05;-0.10;99.90
11772;DHT22;12556;55.748;13.194;2024-01-10T12:48:33;-0.10;99.90
11772;DHT22;12556;55.748;13.194;2024-01-10T12:51:06;-0.10;99.90
11772;DHT22;12556;55.748;13.194;2024-01-10T12:53:34;-0.10;99.90
11772;DHT22;12556;55.748;13.194;2024-01-10T12:56:04;0.00;99.90
11772;DHT22;12556;55.748;13.194;2024-01-10T12:58:32;0.00;99.90
11772;DHT22;12556;55.748;13.194;2024-01-10T13:01:00;0.10;99.90
11772;DHT22;12556;55.748;13.194;2024-01-10T13:03:33;0.00;99.90
11772;DHT22;12556;55.748;13.194;2024-01-10T13:06:00;0.20;99.90
11772;DHT22;12556;55.748;13.194;2024-01-10T13:08:29;0.10;99.90
11772;DHT22;12556;55.748;13.194;2024-01-10T13:10:57;0.10;99.90
11772;DHT22;12556;55.748;13.194;2024-01-10T13:13:25;0.00;99.90
11772;DHT22;12556;55.748;13.194;2024-01-10T13:15:56;0.00;99.90
11772;DHT22;12556;55.748;13.194;2024-01-10T13:18:23;0.00;99.90
11772;DHT22;12556;55.748;13.194;2024-01-10T13:20:50;0.00;99.90
11772;DHT22;12556;55.748;13.194;2024-01-10T13:23:17;0.10;99.90
11772;DHT22;12556;55.748;13.194;2024-01-10T13:25:46;0.10;99.90
11772;DHT22;12556;55.748;13.194;2024-01-10T13:28:14;0.10;99.90
11772;DHT22;12556;55.748;13.194;2024-01-10T13:30:41;0.10;99.90
11772;DHT22;12556;55.748;13.194;2024-01-10T13:33:08;0.10;99.90
11772;DHT22;12556;55.748;13.194;2024-01-10T13:35:41;0.20;99.90
11772;DHT22;12556;55.748;13.194;2024-01-10T13:38:08;0.20;99.90
11772;DHT22;12556;55.748;13.194;2024-01-10T13:40:36;0.20;99.90
11772;DHT22;12556;55.748;13.194;2024-01-10T13:43:07;0.20;99.90
11772;DHT22;12556;55.748;13.194;2024-01-10T13:45:34;0.20;99.90
11772;DHT22;12556;55.748;13.194;2024-01-10T13:48:01;0.20;99.90
11772;DHT22;12556;55.748;13.194;2024-01-10T13:50:29;0.20;99.90
11772;DHT22;12556;55.748;13.194;2024-01-10T13:52:56;0.20;99.90
11772;DHT22;12556;55.748;13.194;2024-01-10T13:55:22;0.30;99.90
11772;DHT22;12556;55.748;13.194;2024-01-10T13:57:50;0.30;99.90
11772;DHT22;12556;55.748;13.194;2024-01-10T14:00:19;0.40;99.90
11772;DHT22;12556;55.748;13.194;2024-01-10T14:02:47;0.50;99.90
11772;DHT22;12556;55.748;13.194;2024-01-10T14:05:14;0.70;99.90
11772;DHT22;12556;55.748;13.194;2024-01-10T14:07:41;1.00;99.90
11772;DHT22;12556;55.748;13.194;2024-01-10T14:10:09;0.70;99.90
11772;DHT22;12556;55.748;13.194;2024-01-10T14:12:38;0.90;99.90
11772;DHT22;12556;55.748;13.194;2024-01-10T14:15:06;0.70;99.90
11772;DHT22;12556;55.748;13.194;2024-01-10T14:17:35;0.70;99.90
11772;DHT22;12556;55.748;13.194;2024-01-10T14:20:02;0.80;99.90
11772;DHT22;12556;55.748;13.194;2024-01-10T14:22:29;0.80;99.90
11772;DHT22;12556;55.748;13.194;2024-01-10T14:24:56;0.70;99.90
11772;DHT22;12556;55.748;13.194;2024-01-10T14:27:23;0.70;99.90
11772;DHT22;12556;55.748;13.194;2024-01-10T14:29:51;0.60;99.90
11772;DHT22;12556;55.748;13.194;2024-01-10T14:32:18;0.60;99.90
11772;DHT22;12556;55.748;13.194;2024-01-10T14:34:46;0.60;99.90
11772;DHT22;12556;55.748;13.194;2024-01-10T14:37:13;0.70;99.90
11772;DHT22;12556;55.748;13.194;2024-01-10T14:39:40;0.70;99.90
11772;DHT22;12556;55.748;13.194;2024-01-10T14:42:07;0.70;99.90
11772;DHT22;12556;55.748;13.194;2024-01-10T14:44:34;0.80;99.90
11772;DHT22;12556;55.748;13.194;2024-01-10T14:47:01;0.80;99.90
11772;DHT22;12556;55.748;13.194;2024-01-10T14:49:29;0.90;99.90
11772;DHT22;12556;55.748;13.194;2024-01-10T14:51:58;0.90;99.90
11772;DHT22;12556;55.748;13.194;2024-01-10T14:54:25;0.80;99.90
11772;DHT22;12556;55.748;13.194;2024-01-10T14:56:51;0.70;99.90
11772;DHT22;12556;55.748;13.194;2024-01-10T14:59:18;0.70;99.90
11772;DHT22;12556;55.748;13.194;2024-01-10T15:01:45;0.70;99.90
11772;DHT22;12556;55.748;13.194;2024-01-10T15:04:13;0.70;99.90
11772;DHT22;12556;55.748;13.194;2024-01-10T15:06:44;0.70;99.90
11772;DHT22;12556;55.748;13.194;2024-01-10T15:09:13;0.70;99.90
11772;DHT22;12556;55.748;13.194;2024-01-10T15:11:40;0.70;99.90
11772;DHT22;12556;55.748;13.194;2024-01-10T15:14:07;0.70;99.90
11772;DHT22;12556;55.748;13.194;2024-01-10T15:16:36;0.70;99.90
11772;DHT22;12556;55.748;13.194;2024-01-10T15:19:03;0.70;99.90
11772;DHT22;12556;55.748;13.194;2024-01-10T15:21:30;0.60;99.90
11772;DHT22;12556;55.748;13.194;2024-01-10T15:23:57;0.60;99.90
11772;DHT22;12556;55.748;13.194;2024-01-10T15:26:25;0.60;99.90
11772;DHT22;12556;55.748;13.194;2024-01-10T15:28:53;0.50;99.90
11772;DHT22;12556;55.748;13.194;2024-01-10T15:31:20;0.60;99.90